Time;durP1;ratioP1;P1;durP2;ratioP2;P2;SDS_P1;SDS_P2;PMS_P1;PMS_P2;Temp;Humidity;BMP_temperature;BMP_pressure;BME280_temperature;BME280_humidity;BME280_pressure;Samples;Min_cycle;Max_cycle;Signal;HPM_P1;HPM_P2
2021/12/29 00:02:20;;;;;;;23.73;17.55;;;13.10;98.10;;;;;;5013226;28;20036;-65
2021/12/29 00:04:46;;;;;;;23.75;17.42;;;13.20;98.20;;;;;;5012875;28;20046;-66
2021/12/29 00:07:12;;;;;;;25.58;17.00;;;13.20;98.00;;;;;;5012890;28;20504;-66
2021/12/29 00:09:40;;;;;;;25.42;16.85;;;13.10;98.00;;;;;;5013040;28;20049;-68
2021/12/29 00:12:10;;;;;;;22.35;16.27;;;13.20;98.10;;;;;;5013085;28;20109;-66
2021/12/29 00:14:37;;;;;;;24.83;17.00;;;13.20;98.10;;;;;;5013186;28;20391;-65
2021/12/29 00:17:03;;;;;;;28.60;16.67;;;13.20;98.10;;;;;;5012833;28;20037;-69
2021/12/29 00:19:29;;;;;;;25.73;16.83;;;13.20;98.00;;;;;;5012764;28;20116;-67
2021/12/29 00:21:55;;;;;;;22.30;15.63;;;13.20;98.00;;;;;;5012934;28;20209;-65
2021/12/29 00:24:21;;;;;;;24.83;16.17;;;13.30;98.00;;;;;;5016346;28;20467;-67
2021/12/29 00:26:47;;;;;;;21.80;15.50;;;13.30;97.90;;;;;;5016626;28;20022;-67
2021/12/29 00:29:14;;;;;;;23.33;15.73;;;13.30;97.80;;;;;;5016454;28;20076;-67
2021/12/29 00:31:40;;;;;;;22.15;14.25;;;13.40;97.80;;;;;;5016381;28;20045;-67
2021/12/29 00:34:06;;;;;;;20.30;14.48;;;13.40;97.80;;;;;;5016488;28;20026;-66
2021/12/29 00:36:32;;;;;;;22.25;14.93;;;13.40;97.70;;;;;;5016308;28;20030;-66
2021/12/29 00:38:58;;;;;;;18.85;13.73;;;13.40;97.60;;;;;;5016299;28;20121;-67
2021/12/29 00:41:23;;;;;;;21.85;14.40;;;13.40;97.60;;;;;;5016132;28;20468;-69
2021/12/29 00:43:49;;;;;;;20.48;14.32;;;13.30;97.40;;;;;;5016164;28;20048;-65
2021/12/29 00:46:18;;;;;;;23.90;13.52;;;13.30;97.40;;;;;;5016133;28;20037;-65
2021/12/29 00:48:47;;;;;;;21.23;13.50;;;13.30;97.50;;;;;;5014834;28;20096;-65
2021/12/29 00:51:13;;;;;;;22.33;13.65;;;13.30;97.50;;;;;;5016240;28;20068;-66
2021/12/29 00:53:41;;;;;;;21.50;13.02;;;13.20;97.60;;;;;;5015976;28;20053;-65
2021/12/29 00:56:07;;;;;;;22.70;14.07;;;13.20;97.50;;;;;;5016284;28;20057;-66
2021/12/29 00:58:33;;;;;;;22.08;12.73;;;13.20;97.50;;;;;;5015882;28;20522;-66
2021/12/29 01:01:00;;;;;;;15.95;11.90;;;13.20;97.50;;;;;;5015952;28;20025;-67
2021/12/29 01:03:26;;;;;;;16.00;10.98;;;13.20;97.40;;;;;;5015850;28;20022;-67
2021/12/29 01:05:53;;;;;;;16.23;10.95;;;13.20;97.40;;;;;;5015771;28;20026;-66
2021/12/29 01:08:22;;;;;;;18.95;10.70;;;13.20;97.50;;;;;;5015426;28;20026;-65
2021/12/29 01:10:47;;;;;;;18.42;11.98;;;13.10;97.50;;;;;;5014373;28;20392;-67
2021/12/29 01:13:19;;;;;;;17.75;10.15;;;13.10;97.60;;;;;;5015765;28;20020;-66
2021/12/29 01:18:27;;;;;;;16.15;9.57;;;13.10;97.70;;;;;;5015460;28;20034;-67
2021/12/29 01:20:54;;;;;;;18.60;10.70;;;13.00;97.80;;;;;;5015655;28;20106;-64
2021/12/29 01:23:20;;;;;;;17.10;10.13;;;13.00;97.90;;;;;;5015918;28;20026;-66
2021/12/29 01:25:46;;;;;;;15.65;10.40;;;12.90;98.00;;;;;;5015308;28;20487;-68
2021/12/29 01:28:12;;;;;;;14.52;9.60;;;12.90;98.10;;;;;;5015323;28;20068;-66
2021/12/29 01:30:38;;;;;;;17.80;9.77;;;12.90;98.20;;;;;;5015557;28;20029;-65
2021/12/29 01:33:06;;;;;;;14.18;8.65;;;12.90;98.50;;;;;;5015331;28;20164;-64
2021/12/29 01:35:36;;;;;;;17.65;9.10;;;12.80;98.20;;;;;;5015142;28;20022;-66
2021/12/29 01:38:04;;;;;;;14.00;9.77;;;12.70;98.40;;;;;;5014979;28;20092;-65
2021/12/29 01:40:31;;;;;;;18.27;9.00;;;12.70;98.50;;;;;;5015451;28;20113;-65
2021/12/29 01:42:57;;;;;;;15.93;8.57;;;12.60;98.60;;;;;;5014947;28;20428;-65
2021/12/29 01:45:24;;;;;;;14.48;8.27;;;12.60;98.70;;;;;;5015066;28;20033;-66
2021/12/29 01:47:50;;;;;;;13.07;8.48;;;12.70;98.80;;;;;;5014998;28;20029;-67
2021/12/29 01:50:17;;;;;;;15.93;8.27;;;12.60;98.80;;;;;;5014670;28;20526;-64
2021/12/29 01:52:50;;;;;;;11.88;7.85;;;12.70;99.00;;;;;;5013522;28;20030;-65
2021/12/29 01:55:17;;;;;;;15.95;8.27;;;12.70;99.00;;;;;;5014968;28;20037;-68
2021/12/29 01:57:43;;;;;;;14.10;8.52;;;12.70;99.00;;;;;;5014905;28;20113;-66
2021/12/29 02:00:14;;;;;;;14.95;7.80;;;12.70;99.00;;;;;;5015037;28;20539;-65
2021/12/29 02:02:39;;;;;;;15.48;7.93;;;12.80;99.30;;;;;;5014746;28;20097;-66
2021/12/29 02:05:05;;;;;;;13.45;7.10;;;12.80;99.00;;;;;;5014576;28;20108;-67
2021/12/29 02:07:32;;;;;;;11.25;6.80;;;12.70;99.00;;;;;;5014594;28;20045;-67
2021/12/29 02:09:58;;;;;;;13.38;6.68;;;12.80;99.10;;;;;;5014590;28;20026;-64
2021/12/29 02:12:24;;;;;;;15.32;7.03;;;12.80;99.10;;;;;;5014633;28;20026;-64
2021/12/29 02:14:49;;;;;;;10.25;5.90;;;12.80;99.10;;;;;;5014837;28;20026;-65
2021/12/29 02:17:15;;;;;;;13.05;6.13;;;12.80;99.00;;;;;;5014114;28;20048;-65
2021/12/29 02:19:46;;;;;;;13.43;6.38;;;12.90;99.10;;;;;;5014359;28;20029;-66
2021/12/29 02:22:26;;;;;;;10.93;5.82;;;12.80;98.90;;;;;;5013015;28;20065;-68
2021/12/29 02:25:05;;;;;;;12.43;6.50;;;12.80;99.00;;;;;;5014204;28;20484;-66
2021/12/29 02:27:32;;;;;;;13.63;5.78;;;12.80;99.00;;;;;;5014000;28;20033;-66
2021/12/29 02:29:58;;;;;;;12.80;6.32;;;12.80;99.00;;;;;;5014105;28;20057;-68
2021/12/29 02:32:24;;;;;;;13.85;6.43;;;12.80;99.00;;;;;;5013139;28;20037;-65
2021/12/29 02:34:50;;;;;;;11.82;6.13;;;12.80;99.00;;;;;;5014351;28;20030;-66
2021/12/29 02:37:19;;;;;;;11.10;6.03;;;12.80;99.10;;;;;;5014119;28;20075;-67
2021/12/29 02:39:47;;;;;;;12.35;6.38;;;12.80;99.10;;;;;;5013896;28;20022;-69
2021/12/29 02:42:14;;;;;;;11.30;7.32;;;12.80;99.00;;;;;;5013997;28;20101;-67
2021/12/29 02:44:41;;;;;;;13.27;6.85;;;12.80;99.00;;;;;;5014139;28;20092;-65
2021/12/29 02:47:08;;;;;;;12.00;7.60;;;12.80;99.10;;;;;;5013488;28;20022;-64
2021/12/29 02:49:34;;;;;;;14.13;7.65;;;12.90;99.30;;;;;;5013768;28;20085;-65
2021/12/29 02:51:59;;;;;;;12.75;8.23;;;12.90;99.20;;;;;;5013985;28;20053;-65
2021/12/29 02:54:26;;;;;;;13.10;7.53;;;12.90;99.20;;;;;;5013641;28;20409;-65
2021/12/29 02:56:54;;;;;;;11.18;7.53;;;12.90;99.30;;;;;;5013842;28;20177;-64
2021/12/29 02:59:21;;;;;;;13.13;8.13;;;13.00;99.30;;;;;;5013616;28;20096;-65
2021/12/29 03:01:47;;;;;;;14.23;8.55;;;13.00;99.10;;;;;;5013925;28;20033;-64
2021/12/29 03:04:12;;;;;;;13.43;9.13;;;12.90;99.10;;;;;;5013790;28;20431;-65
2021/12/29 03:06:39;;;;;;;12.07;8.10;;;12.90;99.30;;;;;;5013538;28;20375;-65
2021/12/29 03:09:07;;;;;;;13.93;9.10;;;12.80;99.20;;;;;;5013693;28;20101;-65
2021/12/29 03:11:33;;;;;;;14.18;8.18;;;12.90;99.40;;;;;;5013698;28;20469;-66
2021/12/29 03:13:59;;;;;;;12.80;9.68;;;12.90;99.20;;;;;;5013497;28;20026;-66
2021/12/29 03:16:25;;;;;;;11.98;8.43;;;12.90;99.40;;;;;;5013659;28;20018;-66
2021/12/29 03:18:51;;;;;;;11.85;8.63;;;12.80;99.30;;;;;;5013239;28;20103;-65
2021/12/29 03:21:17;;;;;;;14.50;8.65;;;12.80;99.40;;;;;;5013457;28;20057;-65
2021/12/29 03:23:43;;;;;;;13.35;8.95;;;12.70;99.40;;;;;;5013243;28;20033;-65
2021/12/29 03:26:09;;;;;;;12.77;9.27;;;12.70;99.50;;;;;;5013345;28;20022;-66
2021/12/29 03:28:37;;;;;;;14.50;8.57;;;12.70;99.50;;;;;;5013344;28;20029;-64
2021/12/29 03:31:03;;;;;;;12.98;9.43;;;12.70;99.50;;;;;;5013186;28;20032;-65
2021/12/29 03:33:29;;;;;;;13.30;9.57;;;12.70;99.60;;;;;;5013366;28;20176;-65
2021/12/29 03:36:01;;;;;;;12.77;9.25;;;12.70;99.60;;;;;;5013294;28;20491;-64
2021/12/29 03:38:29;;;;;;;13.15;9.13;;;12.70;99.60;;;;;;5012892;28;20038;-67
2021/12/29 03:40:56;;;;;;;12.23;8.98;;;12.70;99.60;;;;;;5013266;28;20022;-65
2021/12/29 03:43:22;;;;;;;12.77;8.88;;;12.70;99.60;;;;;;5013194;28;20107;-64
2021/12/29 03:45:51;;;;;;;13.13;9.18;;;12.70;99.70;;;;;;5013351;28;20030;-66
2021/12/29 03:48:18;;;;;;;11.23;8.38;;;12.70;99.60;;;;;;5012002;28;20452;-65
2021/12/29 03:50:45;;;;;;;13.70;8.77;;;12.70;99.60;;;;;;5012659;28;20045;-66
2021/12/29 03:53:13;;;;;;;13.40;7.95;;;12.70;99.70;;;;;;5011973;28;20061;-65
2021/12/29 03:55:39;;;;;;;13.45;8.35;;;12.70;99.60;;;;;;5015625;28;20021;-66
2021/12/29 03:58:05;;;;;;;11.50;7.35;;;12.70;99.70;;;;;;5014566;28;20104;-64
2021/12/29 04:00:31;;;;;;;11.48;7.80;;;12.80;99.60;;;;;;5017109;28;20030;-64
2021/12/29 04:02:57;;;;;;;10.98;7.38;;;12.80;99.60;;;;;;5017089;28;20088;-66
2021/12/29 04:05:24;;;;;;;13.10;7.63;;;12.90;99.60;;;;;;5017149;28;20110;-67
2021/12/29 04:07:53;;;;;;;12.32;8.65;;;12.90;99.60;;;;;;5016986;28;20145;-67
2021/12/29 04:10:19;;;;;;;12.52;8.15;;;13.00;99.60;;;;;;5016854;28;20455;-67
2021/12/29 04:12:45;;;;;;;11.00;7.18;;;13.00;99.80;;;;;;5016780;28;20105;-65
2021/12/29 04:15:12;;;;;;;12.90;7.43;;;13.00;99.40;;;;;;5016901;28;20105;-65
2021/12/29 04:17:39;;;;;;;13.82;7.57;;;13.00;99.40;;;;;;4999100;28;20038;-67
2021/12/29 04:22:59;;;;;;;10.43;7.38;;;13.10;99.40;;;;;;5016640;28;20073;-66
2021/12/29 04:25:25;;;;;;;10.05;7.72;;;13.00;99.30;;;;;;5016600;28;20487;-66
2021/12/29 04:27:53;;;;;;;9.85;7.00;;;13.00;99.50;;;;;;5016510;28;20026;-65
2021/12/29 04:30:20;;;;;;;13.27;7.18;;;13.10;99.50;;;;;;5016426;28;20022;-66
2021/12/29 04:32:45;;;;;;;13.50;7.32;;;13.00;99.40;;;;;;5015028;28;20040;-65
2021/12/29 04:35:11;;;;;;;10.85;7.05;;;13.00;99.50;;;;;;5016321;28;20026;-66
2021/12/29 04:37:37;;;;;;;11.77;6.85;;;13.00;99.40;;;;;;5016109;28;20072;-67
2021/12/29 04:40:04;;;;;;;16.13;6.88;;;13.00;99.50;;;;;;5016575;28;20076;-65
2021/12/29 04:42:30;;;;;;;12.18;6.70;;;13.00;99.40;;;;;;5016591;28;20076;-66
2021/12/29 04:44:56;;;;;;;9.88;6.28;;;13.10;99.40;;;;;;5016166;28;20452;-65
2021/12/29 04:47:28;;;;;;;10.38;6.38;;;13.00;99.30;;;;;;5015962;28;20041;-67
2021/12/29 04:49:54;;;;;;;9.32;5.80;;;13.10;99.40;;;;;;5015829;28;20050;-65
2021/12/29 04:52:20;;;;;;;12.70;6.40;;;13.10;99.40;;;;;;5015998;28;20117;-65
2021/12/29 04:54:45;;;;;;;10.75;5.90;;;13.10;99.30;;;;;;5016014;28;20101;-65
2021/12/29 04:57:11;;;;;;;11.10;6.43;;;13.10;99.10;;;;;;5015904;28;20030;-66
2021/12/29 04:59:37;;;;;;;10.85;6.65;;;13.10;99.20;;;;;;5015894;28;20464;-66
2021/12/29 05:02:03;;;;;;;17.33;8.23;;;13.10;99.20;;;;;;5016027;28;20029;-65
2021/12/29 05:04:34;;;;;;;10.55;6.38;;;13.10;99.30;;;;;;5015914;28;20029;-64
2021/12/29 05:09:46;;;;;;;9.40;6.00;;;13.00;99.30;;;;;;5015441;28;20072;-66
2021/12/29 05:12:12;;;;;;;11.57;6.15;;;13.10;99.40;;;;;;5015784;28;20022;-64
2021/12/29 05:14:38;;;;;;;9.20;5.97;;;13.10;99.40;;;;;;5014454;28;20037;-67
2021/12/29 05:17:05;;;;;;;11.52;6.03;;;13.00;99.40;;;;;;5015669;28;20324;-65
2021/12/29 05:19:32;;;;;;;10.90;5.90;;;13.00;99.50;;;;;;5015574;28;20487;-65
2021/12/29 05:21:58;;;;;;;11.25;6.00;;;13.00;99.70;;;;;;5015487;28;20033;-65
2021/12/29 05:24:23;;;;;;;12.43;6.25;;;13.00;99.60;;;;;;5015511;28;20026;-65
2021/12/29 05:26:49;;;;;;;10.65;6.40;;;13.00;99.70;;;;;;5015411;28;20096;-64
2021/12/29 05:29:15;;;;;;;10.80;6.60;;;12.90;99.70;;;;;;5015152;28;20028;-65
2021/12/29 05:31:41;;;;;;;13.68;6.30;;;12.90;99.70;;;;;;5015303;28;20033;-69
2021/12/29 05:34:06;;;;;;;11.65;6.15;;;12.90;99.80;;;;;;5015236;28;20080;-65
2021/12/29 05:36:32;;;;;;;10.90;6.55;;;12.90;99.80;;;;;;5015396;28;20108;-67
2021/12/29 05:38:58;;;;;;;13.73;6.00;;;12.90;99.90;;;;;;5015035;28;20479;-66
2021/12/29 05:41:24;;;;;;;14.50;6.97;;;12.90;99.90;;;;;;5015045;28;20029;-65
2021/12/29 05:43:50;;;;;;;12.45;6.43;;;12.90;99.90;;;;;;5014955;28;20026;-64
2021/12/29 05:46:16;;;;;;;12.55;6.57;;;13.00;99.90;;;;;;5015164;28;20026;-68
2021/12/29 05:48:42;;;;;;;11.68;6.43;;;13.00;99.90;;;;;;5014644;28;20065;-64
2021/12/29 05:51:08;;;;;;;17.65;7.35;;;13.00;99.90;;;;;;5015027;28;20510;-64
2021/12/29 05:53:34;;;;;;;12.02;6.72;;;13.00;99.90;;;;;;5014901;28;20037;-65
2021/12/29 05:55:59;;;;;;;8.93;6.55;;;13.10;99.90;;;;;;5014841;28;20433;-66
2021/12/29 05:58:25;;;;;;;13.55;6.28;;;13.10;99.90;;;;;;5014484;28;20479;-64
2021/12/29 06:00:51;;;;;;;14.02;6.10;;;13.10;99.90;;;;;;5014635;28;20397;-65
2021/12/29 06:03:19;;;;;;;9.75;6.53;;;13.10;99.80;;;;;;5014891;28;20105;-66
2021/12/29 06:05:44;;;;;;;13.45;6.88;;;13.10;99.90;;;;;;5014969;28;20100;-65
2021/12/29 06:08:10;;;;;;;10.40;6.57;;;13.10;99.90;;;;;;5014375;28;20426;-65
2021/12/29 06:10:36;;;;;;;18.35;7.07;;;13.10;99.90;;;;;;5014623;28;20036;-66
2021/12/29 06:13:02;;;;;;;13.82;7.55;;;13.10;99.90;;;;;;5014886;28;20029;-66
2021/12/29 06:15:28;;;;;;;14.25;7.30;;;13.10;99.90;;;;;;5013110;28;20033;-66
2021/12/29 06:17:55;;;;;;;16.42;7.32;;;13.10;99.90;;;;;;5014363;28;20084;-65
2021/12/29 06:20:20;;;;;;;11.57;6.72;;;13.20;99.90;;;;;;5013672;28;20105;-66
2021/12/29 06:22:46;;;;;;;13.25;6.88;;;13.20;99.90;;;;;;5014455;28;20066;-66
2021/12/29 06:25:15;;;;;;;9.30;6.68;;;13.20;99.90;;;;;;5014357;28;20501;-63
2021/12/29 06:27:40;;;;;;;12.55;6.43;;;13.20;99.90;;;;;;5014182;28;20101;-66
2021/12/29 06:30:09;;;;;;;9.15;6.13;;;13.20;99.90;;;;;;5014283;28;20434;-66
2021/12/29 06:32:35;;;;;;;10.80;5.88;;;13.20;99.90;;;;;;5014138;28;20121;-65
2021/12/29 06:35:01;;;;;;;9.88;5.82;;;13.20;99.90;;;;;;5014762;28;20018;-65
2021/12/29 06:37:27;;;;;;;10.63;6.05;;;13.20;99.90;;;;;;5013843;28;20026;-66
2021/12/29 06:39:53;;;;;;;12.25;5.95;;;13.20;99.90;;;;;;5014270;28;20048;-67
2021/12/29 06:42:19;;;;;;;11.25;5.63;;;13.20;99.80;;;;;;5013867;28;20025;-65
2021/12/29 06:44:46;;;;;;;10.77;5.65;;;13.20;99.80;;;;;;5013834;28;20061;-71
2021/12/29 06:47:12;;;;;;;12.52;6.57;;;13.30;99.90;;;;;;5013874;28;20049;-66
2021/12/29 06:49:38;;;;;;;15.43;6.88;;;13.30;99.90;;;;;;5013442;28;20042;-69
2021/12/29 06:52:04;;;;;;;15.85;5.53;;;13.30;99.80;;;;;;5013644;28;20615;-68
2021/12/29 06:54:31;;;;;;;8.50;5.25;;;13.30;99.70;;;;;;5013641;28;20030;-67
2021/12/29 06:56:57;;;;;;;12.05;5.72;;;13.30;99.70;;;;;;5013380;28;20025;-65
2021/12/29 06:59:23;;;;;;;11.45;6.18;;;13.40;99.70;;;;;;5013218;28;20030;-66
2021/12/29 07:01:49;;;;;;;11.30;5.72;;;13.40;99.90;;;;;;5013066;28;20456;-65
2021/12/29 07:04:15;;;;;;;12.02;5.32;;;13.40;99.60;;;;;;5013413;28;20061;-66
2021/12/29 07:06:41;;;;;;;12.10;5.00;;;13.40;99.50;;;;;;5013348;28;20080;-65
2021/12/29 07:09:07;;;;;;;11.68;5.30;;;13.40;99.50;;;;;;5013032;28;20033;-66
2021/12/29 07:11:34;;;;;;;16.92;5.50;;;13.40;99.40;;;;;;5013510;28;20022;-65
2021/12/29 07:14:02;;;;;;;11.48;4.78;;;13.50;99.50;;;;;;5013192;28;20030;-65
2021/12/29 07:16:28;;;;;;;11.70;5.38;;;13.50;99.30;;;;;;5013030;28;20057;-69
2021/12/29 07:18:54;;;;;;;9.65;5.72;;;13.40;99.10;;;;;;5012981;28;20088;-66
2021/12/29 07:21:20;;;;;;;10.23;5.03;;;13.40;99.30;;;;;;5012897;28;20034;-67
2021/12/29 07:23:46;;;;;;;10.20;5.00;;;13.40;99.10;;;;;;5012760;28;20026;-69
2021/12/29 07:26:11;;;;;;;10.95;5.05;;;13.40;99.00;;;;;;5011474;28;20080;-68
2021/12/29 07:28:38;;;;;;;11.75;5.68;;;13.40;99.30;;;;;;5013073;28;20037;-65
2021/12/29 07:31:04;;;;;;;14.60;5.40;;;13.50;98.90;;;;;;5012817;28;20033;-66
2021/12/29 07:33:30;;;;;;;12.40;4.72;;;13.50;98.80;;;;;;5012437;28;20448;-69
2021/12/29 07:35:56;;;;;;;11.13;5.80;;;13.60;98.80;;;;;;5012494;28;20029;-66
2021/12/29 07:38:21;;;;;;;13.95;6.13;;;13.60;98.60;;;;;;5012381;28;20467;-66
2021/12/29 07:40:47;;;;;;;18.48;7.15;;;13.70;98.70;;;;;;5012413;28;20018;-69
2021/12/29 07:43:13;;;;;;;19.70;7.78;;;13.70;98.60;;;;;;5012492;28;20446;-70
2021/12/29 07:45:42;;;;;;;11.80;5.97;;;13.80;98.40;;;;;;5012196;28;20046;-69
2021/12/29 07:48:09;;;;;;;13.98;6.47;;;13.80;98.30;;;;;;5012180;28;20026;-70
2021/12/29 07:50:36;;;;;;;11.73;5.15;;;13.80;98.20;;;;;;5010531;28;20030;-69
2021/12/29 07:53:02;;;;;;;13.48;5.60;;;13.80;98.20;;;;;;5011968;28;20533;-72
2021/12/29 07:55:28;;;;;;;13.10;5.25;;;13.80;98.20;;;;;;5011936;28;20074;-70
2021/12/29 07:57:53;;;;;;;12.18;5.88;;;13.80;98.10;;;;;;5012067;28;20041;-67
2021/12/29 08:00:19;;;;;;;13.98;5.90;;;13.90;98.10;;;;;;5012122;28;20503;-64
2021/12/29 08:02:47;;;;;;;17.98;6.07;;;13.90;98.00;;;;;;5012332;28;20079;-67
2021/12/29 08:05:13;;;;;;;13.52;5.60;;;13.90;98.00;;;;;;5011810;28;20030;-66
2021/12/29 08:07:39;;;;;;;16.50;6.22;;;13.90;97.90;;;;;;5011959;28;20034;-66
2021/12/29 08:10:06;;;;;;;18.85;5.68;;;13.90;97.80;;;;;;5011728;28;20352;-66
2021/12/29 08:12:32;;;;;;;13.73;6.10;;;13.90;98.00;;;;;;5012013;28;20033;-67
2021/12/29 08:14:58;;;;;;;13.55;5.88;;;13.90;98.00;;;;;;5010685;28;20137;-66
2021/12/29 08:17:24;;;;;;;10.90;6.50;;;14.00;98.00;;;;;;5011640;28;20108;-69
2021/12/29 08:19:50;;;;;;;14.07;5.53;;;14.00;97.80;;;;;;5011893;28;20458;-66
2021/12/29 08:22:16;;;;;;;15.95;5.88;;;14.10;97.80;;;;;;5011712;28;20113;-65
2021/12/29 08:24:42;;;;;;;13.77;5.35;;;14.10;97.70;;;;;;5011993;28;20109;-67
2021/12/29 08:27:08;;;;;;;12.88;5.35;;;14.10;97.60;;;;;;5011567;28;20022;-67
2021/12/29 08:29:36;;;;;;;13.60;5.53;;;14.10;97.60;;;;;;5011841;28;20478;-68
2021/12/29 08:32:03;;;;;;;16.15;5.25;;;14.10;97.60;;;;;;5010402;28;20026;-66
2021/12/29 08:34:29;;;;;;;17.05;6.53;;;14.20;97.50;;;;;;5011418;28;20101;-67
2021/12/29 08:36:54;;;;;;;14.65;6.53;;;14.20;97.50;;;;;;5011688;28;20388;-69
2021/12/29 08:39:20;;;;;;;14.27;5.97;;;14.30;97.40;;;;;;5011927;28;20034;-66
2021/12/29 08:41:47;;;;;;;13.88;6.45;;;14.40;97.20;;;;;;5011676;28;20022;-66
2021/12/29 08:44:13;;;;;;;16.08;5.55;;;14.40;97.10;;;;;;5013209;28;20034;-67
2021/12/29 08:46:39;;;;;;;16.58;5.43;;;14.40;97.00;;;;;;5014935;28;20021;-69
2021/12/29 08:49:05;;;;;;;12.63;6.00;;;14.40;96.90;;;;;;5014615;28;20396;-65
2021/12/29 08:51:32;;;;;;;12.77;5.22;;;14.50;96.90;;;;;;5015190;28;20424;-65
2021/12/29 08:53:57;;;;;;;18.02;5.78;;;14.50;96.90;;;;;;5014913;28;20508;-69
2021/12/29 08:56:24;;;;;;;18.15;5.63;;;14.60;96.70;;;;;;5014974;28;20526;-66
2021/12/29 08:58:51;;;;;;;18.10;6.47;;;14.70;96.60;;;;;;5014726;28;20030;-66
2021/12/29 09:01:17;;;;;;;16.13;6.38;;;14.70;96.60;;;;;;5014898;28;20022;-66
2021/12/29 09:03:44;;;;;;;15.10;6.40;;;14.80;96.60;;;;;;5014573;28;20042;-66
2021/12/29 09:06:11;;;;;;;14.20;6.80;;;14.80;96.40;;;;;;5015114;28;20021;-65
2021/12/29 09:08:37;;;;;;;17.33;6.25;;;14.70;96.20;;;;;;5014752;28;20076;-66
2021/12/29 09:11:03;;;;;;;13.10;5.68;;;14.70;96.20;;;;;;5015088;28;20472;-66
2021/12/29 09:13:29;;;;;;;10.68;5.07;;;14.70;96.30;;;;;;5014583;28;20534;-66
2021/12/29 09:15:57;;;;;;;11.07;5.00;;;14.70;96.20;;;;;;5014803;28;20030;-66
2021/12/29 09:18:29;;;;;;;11.55;4.60;;;14.70;96.00;;;;;;5014446;28;20041;-66
2021/12/29 09:20:58;;;;;;;14.85;4.75;;;14.80;95.80;;;;;;5014724;28;20109;-66
2021/12/29 09:23:24;;;;;;;16.27;4.53;;;14.80;95.50;;;;;;5014619;28;20025;-66
2021/12/29 09:25:49;;;;;;;11.27;4.53;;;14.90;95.60;;;;;;5014499;28;20440;-66
2021/12/29 09:28:17;;;;;;;12.10;5.10;;;15.00;95.40;;;;;;5014736;28;20030;-66
2021/12/29 09:30:46;;;;;;;9.40;4.80;;;15.10;95.40;;;;;;5017706;28;20045;-72
2021/12/29 09:33:14;;;;;;;14.52;5.20;;;15.20;95.10;;;;;;5016164;28;20033;-65
2021/12/29 09:35:40;;;;;;;9.70;5.32;;;15.30;95.00;;;;;;5016083;28;20026;-66
2021/12/29 09:38:07;;;;;;;10.35;5.05;;;15.30;94.80;;;;;;5014605;28;20049;-66
2021/12/29 09:40:34;;;;;;;13.88;6.43;;;15.40;94.80;;;;;;5013878;28;20032;-65
2021/12/29 09:43:01;;;;;;;12.95;5.30;;;15.40;94.80;;;;;;5014216;28;20026;-68
2021/12/29 09:45:27;;;;;;;12.18;4.45;;;15.40;94.70;;;;;;5014124;28;20359;-67
2021/12/29 09:47:55;;;;;;;11.32;5.03;;;15.40;94.80;;;;;;5013977;28;20076;-75
2021/12/29 09:50:21;;;;;;;14.95;6.43;;;15.40;94.80;;;;;;5014216;28;20414;-73
2021/12/29 09:52:48;;;;;;;13.25;5.22;;;15.40;94.80;;;;;;5014549;28;20041;-66
2021/12/29 09:55:17;;;;;;;15.93;5.50;;;15.50;94.70;;;;;;5013155;28;20026;-67
2021/12/29 09:57:45;;;;;;;14.50;5.55;;;15.60;94.70;;;;;;5013794;28;20026;-66
2021/12/29 10:00:41;;;;;;;11.00;5.15;;;15.80;94.60;;;;;;5013821;28;20026;-65
2021/12/29 10:03:09;;;;;;;9.75;5.28;;;15.80;94.30;;;;;;5011638;28;20038;-66
2021/12/29 10:05:37;;;;;;;12.50;5.10;;;15.80;94.20;;;;;;5014325;28;20121;-65
2021/12/29 10:08:25;;;;;;;12.25;5.70;;;15.70;94.30;;;;;;5013999;28;20022;-66
2021/12/29 10:10:54;;;;;;;13.80;5.10;;;15.80;94.40;;;;;;5013704;28;20030;-67
2021/12/29 10:13:20;;;;;;;14.73;5.13;;;15.90;94.30;;;;;;5013401;28;20060;-69
2021/12/29 10:16:02;;;;;;;14.75;7.25;;;16.00;94.10;;;;;;5013481;28;20030;-66
2021/12/29 10:18:30;;;;;;;19.63;7.13;;;16.20;94.00;;;;;;5013527;28;20120;-67
2021/12/29 10:21:03;;;;;;;13.05;6.40;;;16.30;93.70;;;;;;5013309;28;20530;-66
2021/12/29 10:23:33;;;;;;;17.00;5.75;;;16.40;93.40;;;;;;5013421;28;20026;-66
2021/12/29 10:26:30;;;;;;;18.83;5.97;;;16.40;93.20;;;;;;5013620;28;20427;-65
2021/12/29 10:29:02;;;;;;;12.18;5.90;;;16.40;93.30;;;;;;5011549;28;20030;-66
2021/12/29 10:31:45;;;;;;;14.30;5.95;;;16.40;93.30;;;;;;5013503;28;20110;-66
2021/12/29 10:34:15;;;;;;;14.98;5.85;;;16.40;93.70;;;;;;5013600;28;20034;-66
2021/12/29 10:37:04;;;;;;;10.95;5.00;;;16.40;93.40;;;;;;5013380;28;20022;-67
2021/12/29 10:39:34;;;;;;;13.00;5.82;;;16.40;93.00;;;;;;5013153;28;20042;-67
2021/12/29 10:42:09;;;;;;;18.85;6.70;;;16.40;93.10;;;;;;5013121;28;20022;-72
2021/12/29 10:44:43;;;;;;;11.82;5.60;;;16.60;93.00;;;;;;5013263;28;20125;-70
2021/12/29 10:47:19;;;;;;;13.77;6.13;;;16.50;93.00;;;;;;5013172;28;20048;-69
2021/12/29 10:49:59;;;;;;;14.02;5.47;;;16.60;93.10;;;;;;5013075;28;20056;-75
2021/12/29 10:52:45;;;;;;;14.85;5.80;;;16.50;93.10;;;;;;5013268;28;20022;-67
2021/12/29 10:55:34;;;;;;;11.55;5.85;;;16.70;93.20;;;;;;5013041;28;20034;-69
2021/12/29 10:58:05;;;;;;;21.33;6.57;;;16.70;93.10;;;;;;5012587;28;20411;-68
2021/12/29 11:00:32;;;;;;;15.70;5.35;;;16.80;93.10;;;;;;5012583;28;20380;-69
2021/12/29 11:03:19;;;;;;;19.55;6.25;;;16.90;92.80;;;;;;5012628;28;20033;-65
2021/12/29 11:05:50;;;;;;;14.75;5.43;;;17.00;92.60;;;;;;5012649;28;20030;-67
2021/12/29 11:08:17;;;;;;;19.02;5.68;;;17.10;92.50;;;;;;5012006;28;20022;-69
2021/12/29 11:10:45;;;;;;;15.93;4.53;;;17.20;92.20;;;;;;5012857;28;20037;-68
2021/12/29 11:13:12;;;;;;;14.95;5.30;;;17.30;91.70;;;;;;5012617;28;20057;-67
2021/12/29 11:15:42;;;;;;;12.00;4.38;;;17.40;91.80;;;;;;5012750;28;20034;-70
2021/12/29 11:18:11;;;;;;;14.52;4.43;;;17.30;91.80;;;;;;5012540;28;20041;-66
2021/12/29 11:20:39;;;;;;;12.05;4.65;;;17.30;91.60;;;;;;5012824;28;20034;-72
2021/12/29 11:23:16;;;;;;;14.13;4.60;;;17.30;91.60;;;;;;5012498;28;20162;-68
2021/12/29 11:25:44;;;;;;;13.93;3.65;;;17.40;91.70;;;;;;5012602;28;20061;-69
2021/12/29 11:28:28;;;;;;;16.23;4.57;;;17.30;91.50;;;;;;5012243;28;20046;-71
2021/12/29 11:30:56;;;;;;;13.00;4.30;;;17.30;91.70;;;;;;5012442;28;20598;-66
2021/12/29 11:33:23;;;;;;;16.02;4.25;;;17.40;91.70;;;;;;5012304;28;20037;-67
2021/12/29 11:35:52;;;;;;;14.98;3.88;;;17.30;91.70;;;;;;5012198;28;20026;-70
2021/12/29 11:38:19;;;;;;;14.02;4.53;;;17.30;91.60;;;;;;5012204;28;20040;-73
2021/12/29 11:40:48;;;;;;;12.50;4.65;;;17.30;91.80;;;;;;5012353;28;20048;-72
2021/12/29 11:43:17;;;;;;;14.25;4.40;;;17.40;91.80;;;;;;5012321;28;20113;-69
2021/12/29 11:45:45;;;;;;;10.98;4.15;;;17.30;91.70;;;;;;5011971;28;20026;-66
2021/12/29 11:48:12;;;;;;;10.93;4.72;;;17.30;91.80;;;;;;5012110;28;20037;-70
2021/12/29 11:50:48;;;;;;;12.07;4.90;;;17.30;92.00;;;;;;5011600;28;20503;-66
2021/12/29 11:53:23;;;;;;;12.25;4.15;;;17.30;91.90;;;;;;5012076;28;20030;-67
2021/12/29 11:55:53;;;;;;;13.38;4.28;;;17.30;92.00;;;;;;5012300;28;20022;-68
2021/12/29 11:58:27;;;;;;;16.65;4.95;;;17.30;91.90;;;;;;5012027;28;20037;-66
2021/12/29 12:01:07;;;;;;;15.43;4.35;;;17.30;92.00;;;;;;5012482;28;20049;-66
2021/12/29 12:03:48;;;;;;;16.50;4.50;;;17.30;92.00;;;;;;5010147;28;20156;-66
2021/12/29 12:06:25;;;;;;;11.70;4.10;;;17.40;92.10;;;;;;5009979;28;20463;-67
2021/12/29 12:09:14;;;;;;;17.90;4.10;;;17.40;92.10;;;;;;5011469;28;20034;-66
2021/12/29 12:11:49;;;;;;;11.30;3.85;;;17.40;92.00;;;;;;5011861;28;20088;-65
2021/12/29 12:14:27;;;;;;;14.48;4.38;;;17.50;92.10;;;;;;5011622;28;20480;-66
2021/12/29 12:17:20;;;;;;;13.45;4.40;;;17.50;92.00;;;;;;5011946;28;20101;-66
2021/12/29 12:20:05;;;;;;;14.67;4.83;;;17.70;91.90;;;;;;5013590;28;20042;-67
2021/12/29 12:22:53;;;;;;;13.10;3.22;;;17.80;91.90;;;;;;5015177;28;20265;-68
2021/12/29 12:25:30;;;;;;;15.05;4.10;;;17.80;91.70;;;;;;5015389;28;20033;-68
2021/12/29 12:28:16;;;;;;;10.52;3.45;;;17.80;91.50;;;;;;5015238;28;20030;-66
2021/12/29 12:30:47;;;;;;;7.40;2.60;;;17.80;91.50;;;;;;5015049;28;20030;-68
2021/12/29 12:33:20;;;;;;;9.60;2.35;;;18.00;91.40;;;;;;5015132;28;20029;-68
2021/12/29 12:35:49;;;;;;;10.23;2.80;;;18.10;91.10;;;;;;5014858;28;20022;-66
2021/12/29 12:38:27;;;;;;;9.98;2.60;;;18.10;90.90;;;;;;5015072;28;20038;-65
2021/12/29 12:41:13;;;;;;;8.05;3.05;;;18.10;90.90;;;;;;5015158;28;20041;-67
2021/12/29 12:43:58;;;;;;;10.52;2.75;;;18.20;90.50;;;;;;5015231;28;20065;-67
2021/12/29 12:46:41;;;;;;;10.25;3.08;;;18.20;90.30;;;;;;5014824;28;20022;-66
2021/12/29 12:49:17;;;;;;;10.50;3.15;;;18.10;90.10;;;;;;5015215;28;20049;-67
2021/12/29 12:52:13;;;;;;;14.55;2.95;;;18.20;90.30;;;;;;5015344;28;20029;-67